METAR Data
IDs: Format: Raw Decoded Include TAF

Data at: 1637 UTC 26 Sep 2021

KPAE 261553Z 15012G20KT 10SM FEW035 BKN100 BKN120 14/09 A2986 RMK AO2 SLP111 T01390089

KPAE 261124Z 2612/2712 17011KT P6SM SCT035 OVC050
  FM261400 17012G18KT P6SM BKN018 BKN100
  FM262000 18010G15KT P6SM -RA BKN020 OVC050


KAWO 261556Z AUTO 13014G19KT 10SM OVC037 15/09 A2986 RMK AO2 SLP116 T01500094 TSNO
No TAF found for KAWO

KBFI 261553Z 15010KT 10SM OVC030 14/10 A2987 RMK AO2 SLP115 T01440100 $

KBFI 261450Z 2615/2712 16009KT P6SM BKN030 BKN050
  FM261600 20011KT P6SM BKN035 BKN120
  FM262300 18010G15KT P6SM -RA BKN030 OVC060


KRNT 261610Z 17006KT 10SM SCT024 BKN055 15/10 A2987 RMK AO2 T01500100 $
No TAF found for KRNT

KSEA 261553Z 18010KT 10SM BKN025 OVC060 14/09 A2988 RMK AO2 SLP122 T01390094

KSEA 261451Z 2615/2718 16009KT P6SM OVC030
  FM261600 22012KT P6SM BKN030 BKN120
  FM262000 24012KT P6SM VCSH BKN025 OVC060
  FM270000 20015G22KT 4SM -RA BR OVC025
  FM270300 18010G18KT 4SM -RA BR OVC015